Terminal Aerodrome Forecast
Issued by NWS

Home | Current Version | Previous Version | Text Only | Print | Product List | Glossary On
Versions: 1 2 3 4 5 6 7 8 9 10 11 12 13 14 15 16
000
FTUS41 KGYX 262320
TAFPSM
TAF
KPSM 262320Z 2700/2724 17005KT P6SM SCT100 BKN200
     FM270900 18005KT P6SM -SHRA SCT025 BKN050 OVC100
     FM271100 18005KT 5SM -SHRA BR BKN010 OVC025
     FM271600 30007KT P6SM SCT025 BKN050
     FM271800 VRB04KT P6SM SCT050=

USA.gov is the U.S. government's official web portal to all federal, state and local government web resources and services.